sensor_id;sensor_type;location;lat;lon;timestamp;pressure;altitude;pressure_sealevel;temperature;humidity
19210;BME280;9738;51.654;14.238;2022-08-19T00:01:35;99640.66;;;23.48;87.99
19210;BME280;9738;51.654;14.238;2022-08-19T00:04:04;99636.53;;;23.45;88.29
19210;BME280;9738;51.654;14.238;2022-08-19T00:06:30;99641.41;;;23.43;88.71
19210;BME280;9738;51.654;14.238;2022-08-19T00:08:58;99650.59;;;23.37;89.13
19210;BME280;9738;51.654;14.238;2022-08-19T00:11:26;99646.72;;;23.33;89.01
19210;BME280;9738;51.654;14.238;2022-08-19T00:13:56;99643.19;;;23.32;89.19
19210;BME280;9738;51.654;14.238;2022-08-19T00:16:24;99645.09;;;23.32;89.70
19210;BME280;9738;51.654;14.238;2022-08-19T00:18:50;99643.13;;;23.27;89.79
19210;BME280;9738;51.654;14.238;2022-08-19T00:21:16;99649.91;;;23.25;90.67
19210;BME280;9738;51.654;14.238;2022-08-19T00:23:42;99649.03;;;23.19;91.21
19210;BME280;9738;51.654;14.238;2022-08-19T00:26:09;99654.72;;;23.17;92.12
19210;BME280;9738;51.654;14.238;2022-08-19T00:28:36;99649.84;;;23.19;91.56
19210;BME280;9738;51.654;14.238;2022-08-19T00:31:04;99646.28;;;23.19;92.03
19210;BME280;9738;51.654;14.238;2022-08-19T00:33:31;99656.03;;;23.15;92.95
19210;BME280;9738;51.654;14.238;2022-08-19T00:36:01;99660.84;;;23.08;93.90
19210;BME280;9738;51.654;14.238;2022-08-19T00:38:27;99657.56;;;23.06;94.90
19210;BME280;9738;51.654;14.238;2022-08-19T00:40:53;99651.56;;;23.04;94.76
19210;BME280;9738;51.654;14.238;2022-08-19T00:43:22;99649.31;;;23.01;95.98
19210;BME280;9738;51.654;14.238;2022-08-19T00:45:48;99659.41;;;23.00;96.29
19210;BME280;9738;51.654;14.238;2022-08-19T00:48:16;99659.97;;;23.02;96.31
19210;BME280;9738;51.654;14.238;2022-08-19T00:50:43;99659.72;;;23.04;96.22
19210;BME280;9738;51.654;14.238;2022-08-19T00:53:12;99659.13;;;23.02;96.29
19210;BME280;9738;51.654;14.238;2022-08-19T00:55:42;99648.16;;;22.97;97.32
19210;BME280;9738;51.654;14.238;2022-08-19T00:58:14;99648.34;;;22.90;98.92
19210;BME280;9738;51.654;14.238;2022-08-19T01:00:41;99649.91;;;22.86;99.69
19210;BME280;9738;51.654;14.238;2022-08-19T01:03:10;99636.78;;;22.83;100.00
19210;BME280;9738;51.654;14.238;2022-08-19T01:05:37;99638.94;;;22.81;100.00
19210;BME280;9738;51.654;14.238;2022-08-19T01:08:05;99635.66;;;22.79;100.00
19210;BME280;9738;51.654;14.238;2022-08-19T01:10:35;99642.75;;;22.80;100.00
19210;BME280;9738;51.654;14.238;2022-08-19T01:13:03;99641.59;;;22.76;100.00
19210;BME280;9738;51.654;14.238;2022-08-19T01:15:33;99645.97;;;22.77;100.00
19210;BME280;9738;51.654;14.238;2022-08-19T01:18:06;99654.63;;;22.74;100.00
19210;BME280;9738;51.654;14.238;2022-08-19T01:20:34;99653.00;;;22.73;100.00
19210;BME280;9738;51.654;14.238;2022-08-19T01:23:00;99647.56;;;22.73;100.00
19210;BME280;9738;51.654;14.238;2022-08-19T01:25:29;99645.31;;;22.70;100.00
19210;BME280;9738;51.654;14.238;2022-08-19T01:27:57;99645.81;;;22.66;100.00
19210;BME280;9738;51.654;14.238;2022-08-19T01:30:28;99651.53;;;22.65;100.00
19210;BME280;9738;51.654;14.238;2022-08-19T01:32:55;99641.88;;;22.57;100.00
19210;BME280;9738;51.654;14.238;2022-08-19T01:35:23;99648.91;;;22.53;100.00
19210;BME280;9738;51.654;14.238;2022-08-19T01:37:56;99653.69;;;22.46;100.00
19210;BME280;9738;51.654;14.238;2022-08-19T01:40:25;99660.13;;;22.40;100.00
19210;BME280;9738;51.654;14.238;2022-08-19T01:42:53;99659.78;;;22.36;100.00
19210;BME280;9738;51.654;14.238;2022-08-19T01:45:21;99660.03;;;22.35;100.00
19210;BME280;9738;51.654;14.238;2022-08-19T01:47:48;99654.84;;;22.33;100.00
19210;BME280;9738;51.654;14.238;2022-08-19T01:50:14;99652.84;;;22.29;100.00
19210;BME280;9738;51.654;14.238;2022-08-19T01:52:41;99654.31;;;22.20;100.00
19210;BME280;9738;51.654;14.238;2022-08-19T01:55:11;99659.91;;;22.13;100.00
19210;BME280;9738;51.654;14.238;2022-08-19T01:57:40;99662.78;;;22.06;100.00
19210;BME280;9738;51.654;14.238;2022-08-19T02:00:10;99661.94;;;22.06;100.00
19210;BME280;9738;51.654;14.238;2022-08-19T02:02:37;99664.66;;;22.06;100.00
19210;BME280;9738;51.654;14.238;2022-08-19T02:05:03;99658.41;;;22.05;100.00
19210;BME280;9738;51.654;14.238;2022-08-19T02:07:29;99652.97;;;22.05;100.00
19210;BME280;9738;51.654;14.238;2022-08-19T02:09:56;99651.81;;;22.01;100.00
19210;BME280;9738;51.654;14.238;2022-08-19T02:12:21;99650.41;;;21.99;100.00
19210;BME280;9738;51.654;14.238;2022-08-19T02:14:47;99647.38;;;21.95;100.00
19210;BME280;9738;51.654;14.238;2022-08-19T02:17:13;99652.47;;;21.92;100.00
19210;BME280;9738;51.654;14.238;2022-08-19T02:19:39;99650.00;;;21.90;100.00
19210;BME280;9738;51.654;14.238;2022-08-19T02:22:06;99645.28;;;21.85;100.00
19210;BME280;9738;51.654;14.238;2022-08-19T02:24:32;99648.16;;;21.79;100.00
19210;BME280;9738;51.654;14.238;2022-08-19T02:26:58;99654.56;;;21.73;100.00
19210;BME280;9738;51.654;14.238;2022-08-19T02:29:24;99658.00;;;21.68;100.00
19210;BME280;9738;51.654;14.238;2022-08-19T02:31:50;99665.22;;;21.63;100.00
19210;BME280;9738;51.654;14.238;2022-08-19T02:34:17;99671.63;;;21.56;100.00
19210;BME280;9738;51.654;14.238;2022-08-19T02:36:43;99666.13;;;21.51;100.00
19210;BME280;9738;51.654;14.238;2022-08-19T02:39:09;99662.72;;;21.44;100.00
19210;BME280;9738;51.654;14.238;2022-08-19T02:41:35;99662.59;;;21.39;100.00
19210;BME280;9738;51.654;14.238;2022-08-19T02:44:03;99660.34;;;21.36;100.00
19210;BME280;9738;51.654;14.238;2022-08-19T02:46:32;99669.47;;;21.30;100.00
19210;BME280;9738;51.654;14.238;2022-08-19T02:49:04;99675.38;;;21.27;100.00
19210;BME280;9738;51.654;14.238;2022-08-19T02:51:34;99673.13;;;21.24;100.00
19210;BME280;9738;51.654;14.238;2022-08-19T02:54:01;99671.13;;;21.19;100.00
19210;BME280;9738;51.654;14.238;2022-08-19T02:56:27;99675.13;;;21.17;100.00
19210;BME280;9738;51.654;14.238;2022-08-19T02:58:54;99674.31;;;21.16;100.00
19210;BME280;9738;51.654;14.238;2022-08-19T03:01:27;99674.56;;;21.15;100.00
19210;BME280;9738;51.654;14.238;2022-08-19T03:03:56;99681.88;;;21.14;100.00
19210;BME280;9738;51.654;14.238;2022-08-19T03:06:22;99683.78;;;21.14;100.00
19210;BME280;9738;51.654;14.238;2022-08-19T03:08:49;99685.88;;;21.12;100.00
19210;BME280;9738;51.654;14.238;2022-08-19T03:11:27;99685.66;;;21.13;100.00
19210;BME280;9738;51.654;14.238;2022-08-19T03:13:53;99683.16;;;21.12;100.00
19210;BME280;9738;51.654;14.238;2022-08-19T03:16:22;99682.59;;;21.10;100.00
19210;BME280;9738;51.654;14.238;2022-08-19T03:18:49;99685.31;;;21.10;100.00
19210;BME280;9738;51.654;14.238;2022-08-19T03:21:16;99687.19;;;21.09;100.00
19210;BME280;9738;51.654;14.238;2022-08-19T03:23:43;99681.41;;;21.05;100.00
19210;BME280;9738;51.654;14.238;2022-08-19T03:26:09;99689.56;;;21.05;100.00
19210;BME280;9738;51.654;14.238;2022-08-19T03:28:35;99699.00;;;21.03;100.00
19210;BME280;9738;51.654;14.238;2022-08-19T03:31:06;99695.47;;;21.02;100.00
19210;BME280;9738;51.654;14.238;2022-08-19T03:33:33;99699.50;;;21.00;100.00
19210;BME280;9738;51.654;14.238;2022-08-19T03:36:06;99700.19;;;20.95;100.00
19210;BME280;9738;51.654;14.238;2022-08-19T03:38:36;99700.91;;;20.91;100.00
19210;BME280;9738;51.654;14.238;2022-08-19T03:41:04;99694.06;;;20.88;100.00
19210;BME280;9738;51.654;14.238;2022-08-19T03:43:36;99690.16;;;20.84;100.00
19210;BME280;9738;51.654;14.238;2022-08-19T03:46:08;99682.28;;;20.83;100.00
19210;BME280;9738;51.654;14.238;2022-08-19T03:48:35;99686.25;;;20.80;100.00
19210;BME280;9738;51.654;14.238;2022-08-19T03:51:03;99680.50;;;20.76;100.00
19210;BME280;9738;51.654;14.238;2022-08-19T03:53:30;99681.56;;;20.75;100.00
19210;BME280;9738;51.654;14.238;2022-08-19T03:55:57;99683.66;;;20.73;100.00
19210;BME280;9738;51.654;14.238;2022-08-19T03:58:27;99681.78;;;20.74;100.00
19210;BME280;9738;51.654;14.238;2022-08-19T04:00:55;99682.03;;;20.72;100.00
19210;BME280;9738;51.654;14.238;2022-08-19T04:03:23;99681.19;;;20.72;100.00
19210;BME280;9738;51.654;14.238;2022-08-19T04:05:49;99688.75;;;20.70;100.00
19210;BME280;9738;51.654;14.238;2022-08-19T04:08:15;99690.41;;;20.71;100.00
19210;BME280;9738;51.654;14.238;2022-08-19T04:10:47;99690.91;;;20.68;100.00
19210;BME280;9738;51.654;14.238;2022-08-19T04:13:15;99694.19;;;20.70;100.00
19210;BME280;9738;51.654;14.238;2022-08-19T04:15:42;99687.69;;;20.71;100.00
19210;BME280;9738;51.654;14.238;2022-08-19T04:18:09;99693.94;;;20.71;100.00
19210;BME280;9738;51.654;14.238;2022-08-19T04:20:43;99691.81;;;20.73;100.00
19210;BME280;9738;51.654;14.238;2022-08-19T04:23:10;99696.22;;;20.74;100.00
19210;BME280;9738;51.654;14.238;2022-08-19T04:25:38;99696.78;;;20.76;100.00
19210;BME280;9738;51.654;14.238;2022-08-19T04:28:05;99697.13;;;20.80;100.00
19210;BME280;9738;51.654;14.238;2022-08-19T04:30:30;99692.31;;;20.82;100.00
19210;BME280;9738;51.654;14.238;2022-08-19T04:32:57;99690.16;;;20.84;100.00
19210;BME280;9738;51.654;14.238;2022-08-19T04:35:22;99700.78;;;20.86;100.00
19210;BME280;9738;51.654;14.238;2022-08-19T04:37:48;99700.56;;;20.87;100.00
19210;BME280;9738;51.654;14.238;2022-08-19T04:40:14;99699.25;;;20.90;100.00
19210;BME280;9738;51.654;14.238;2022-08-19T04:42:59;99697.50;;;20.95;100.00
19210;BME280;9738;51.654;14.238;2022-08-19T04:45:27;99704.56;;;20.96;100.00
19210;BME280;9738;51.654;14.238;2022-08-19T04:47:55;99703.25;;;20.99;100.00
19210;BME280;9738;51.654;14.238;2022-08-19T04:50:25;99695.47;;;21.02;100.00
19210;BME280;9738;51.654;14.238;2022-08-19T04:52:52;99696.88;;;21.05;100.00
19210;BME280;9738;51.654;14.238;2022-08-19T04:55:18;99698.31;;;21.08;100.00
19210;BME280;9738;51.654;14.238;2022-08-19T04:57:44;99698.88;;;21.10;100.00
19210;BME280;9738;51.654;14.238;2022-08-19T05:00:11;99708.47;;;21.12;100.00
19210;BME280;9738;51.654;14.238;2022-08-19T05:02:37;99705.50;;;21.14;100.00
19210;BME280;9738;51.654;14.238;2022-08-19T05:05:04;99694.41;;;21.15;100.00
19210;BME280;9738;51.654;14.238;2022-08-19T05:07:32;99683.91;;;21.19;100.00
19210;BME280;9738;51.654;14.238;2022-08-19T05:09:58;99685.28;;;21.21;100.00
19210;BME280;9738;51.654;14.238;2022-08-19T05:12:24;99684.81;;;21.24;100.00
19210;BME280;9738;51.654;14.238;2022-08-19T05:14:50;99687.31;;;21.26;100.00
19210;BME280;9738;51.654;14.238;2022-08-19T05:17:17;99685.16;;;21.28;100.00
19210;BME280;9738;51.654;14.238;2022-08-19T05:19:43;99694.75;;;21.30;100.00
19210;BME280;9738;51.654;14.238;2022-08-19T05:22:28;99688.47;;;21.30;100.00
19210;BME280;9738;51.654;14.238;2022-08-19T05:25:05;99690.72;;;21.33;100.00
19210;BME280;9738;51.654;14.238;2022-08-19T05:27:32;99707.97;;;21.39;100.00
19210;BME280;9738;51.654;14.238;2022-08-19T05:29:58;99717.06;;;21.44;100.00
19210;BME280;9738;51.654;14.238;2022-08-19T05:32:25;99713.25;;;21.45;100.00
19210;BME280;9738;51.654;14.238;2022-08-19T05:34:51;99713.03;;;21.47;100.00
19210;BME280;9738;51.654;14.238;2022-08-19T05:37:17;99723.41;;;21.50;100.00
19210;BME280;9738;51.654;14.238;2022-08-19T05:39:43;99723.75;;;21.53;100.00
19210;BME280;9738;51.654;14.238;2022-08-19T05:42:11;99736.25;;;21.54;100.00
19210;BME280;9738;51.654;14.238;2022-08-19T05:44:40;99737.91;;;21.55;100.00
19210;BME280;9738;51.654;14.238;2022-08-19T05:47:11;99733.66;;;21.59;100.00
19210;BME280;9738;51.654;14.238;2022-08-19T05:49:36;99735.41;;;21.66;100.00
19210;BME280;9738;51.654;14.238;2022-08-19T05:52:08;99744.63;;;21.65;100.00
19210;BME280;9738;51.654;14.238;2022-08-19T05:54:38;99750.41;;;21.68;100.00
19210;BME280;9738;51.654;14.238;2022-08-19T05:57:06;99750.41;;;21.68;100.00
19210;BME280;9738;51.654;14.238;2022-08-19T05:59:32;99757.84;;;21.73;100.00
19210;BME280;9738;51.654;14.238;2022-08-19T06:02:02;99753.59;;;21.77;100.00
19210;BME280;9738;51.654;14.238;2022-08-19T06:04:28;99743.53;;;21.77;100.00
19210;BME280;9738;51.654;14.238;2022-08-19T06:06:54;99753.91;;;21.80;100.00
19210;BME280;9738;51.654;14.238;2022-08-19T06:09:22;99759.09;;;21.82;100.00
19210;BME280;9738;51.654;14.238;2022-08-19T06:11:51;99764.31;;;21.83;100.00
19210;BME280;9738;51.654;14.238;2022-08-19T06:14:24;99770.59;;;21.84;100.00
19210;BME280;9738;51.654;14.238;2022-08-19T06:16:51;99771.66;;;21.83;100.00
19210;BME280;9738;51.654;14.238;2022-08-19T06:19:19;99774.38;;;21.83;100.00
19210;BME280;9738;51.654;14.238;2022-08-19T06:21:47;99774.59;;;21.81;100.00
19210;BME280;9738;51.654;14.238;2022-08-19T06:24:17;99777.91;;;21.83;100.00
19210;BME280;9738;51.654;14.238;2022-08-19T06:26:47;99780.38;;;21.85;100.00
19210;BME280;9738;51.654;14.238;2022-08-19T06:29:16;99787.22;;;21.88;100.00
19210;BME280;9738;51.654;14.238;2022-08-19T06:31:44;99788.03;;;21.88;100.00
19210;BME280;9738;51.654;14.238;2022-08-19T06:34:10;99793.84;;;21.92;100.00
19210;BME280;9738;51.654;14.238;2022-08-19T06:36:40;99807.78;;;21.95;100.00
19210;BME280;9738;51.654;14.238;2022-08-19T06:39:13;99808.38;;;21.97;100.00
19210;BME280;9738;51.654;14.238;2022-08-19T06:41:43;99811.91;;;21.98;100.00
19210;BME280;9738;51.654;14.238;2022-08-19T06:44:10;99813.81;;;21.97;100.00
19210;BME280;9738;51.654;14.238;2022-08-19T06:46:37;99819.50;;;21.96;100.00
19210;BME280;9738;51.654;14.238;2022-08-19T06:49:04;99816.41;;;21.92;100.00
19210;BME280;9738;51.654;14.238;2022-08-19T06:51:30;99830.50;;;21.89;100.00
19210;BME280;9738;51.654;14.238;2022-08-19T06:53:58;99821.97;;;21.85;100.00
19210;BME280;9738;51.654;14.238;2022-08-19T06:56:27;99823.31;;;21.83;100.00
19210;BME280;9738;51.654;14.238;2022-08-19T06:59:06;99820.34;;;21.84;100.00
19210;BME280;9738;51.654;14.238;2022-08-19T07:01:39;99824.47;;;21.87;100.00
19210;BME280;9738;51.654;14.238;2022-08-19T07:04:06;99830.50;;;21.89;100.00
19210;BME280;9738;51.654;14.238;2022-08-19T07:06:33;99835.00;;;21.83;100.00
19210;BME280;9738;51.654;14.238;2022-08-19T07:08:59;99841.50;;;21.82;100.00
19210;BME280;9738;51.654;14.238;2022-08-19T07:11:25;99836.06;;;21.82;100.00
19210;BME280;9738;51.654;14.238;2022-08-19T07:13:51;99841.03;;;21.85;100.00
19210;BME280;9738;51.654;14.238;2022-08-19T07:16:18;99853.66;;;21.92;100.00
19210;BME280;9738;51.654;14.238;2022-08-19T07:18:46;99856.94;;;21.94;100.00
19210;BME280;9738;51.654;14.238;2022-08-19T07:21:23;99858.03;;;21.93;100.00
19210;BME280;9738;51.654;14.238;2022-08-19T07:23:50;99867.59;;;21.95;100.00
19210;BME280;9738;51.654;14.238;2022-08-19T07:26:20;99861.09;;;21.96;100.00
19210;BME280;9738;51.654;14.238;2022-08-19T07:28:47;99862.63;;;21.92;100.00
19210;BME280;9738;51.654;14.238;2022-08-19T07:31:16;99865.50;;;21.85;100.00
19210;BME280;9738;51.654;14.238;2022-08-19T07:33:45;99860.03;;;21.85;100.00
19210;BME280;9738;51.654;14.238;2022-08-19T07:36:13;99850.81;;;21.86;100.00
19210;BME280;9738;51.654;14.238;2022-08-19T07:38:41;99846.69;;;21.84;100.00
19210;BME280;9738;51.654;14.238;2022-08-19T07:41:11;99849.53;;;21.89;100.00
19210;BME280;9738;51.654;14.238;2022-08-19T07:43:37;99847.84;;;21.88;100.00
19210;BME280;9738;51.654;14.238;2022-08-19T07:46:03;99851.66;;;21.87;100.00
19210;BME280;9738;51.654;14.238;2022-08-19T07:48:30;99854.97;;;21.89;100.00
19210;BME280;9738;51.654;14.238;2022-08-19T07:50:58;99868.06;;;21.92;100.00
19210;BME280;9738;51.654;14.238;2022-08-19T07:53:24;99864.53;;;21.92;100.00
19210;BME280;9738;51.654;14.238;2022-08-19T07:55:51;99862.16;;;21.95;100.00
19210;BME280;9738;51.654;14.238;2022-08-19T07:58:19;99863.31;;;21.99;100.00
19210;BME280;9738;51.654;14.238;2022-08-19T08:00:47;99873.63;;;21.97;100.00
19210;BME280;9738;51.654;14.238;2022-08-19T08:03:17;99886.16;;;21.98;100.00
19210;BME280;9738;51.654;14.238;2022-08-19T08:05:43;99887.34;;;22.02;100.00
19210;BME280;9738;51.654;14.238;2022-08-19T08:08:29;99878.44;;;22.07;100.00
19210;BME280;9738;51.654;14.238;2022-08-19T08:11:17;99883.66;;;22.08;100.00
19210;BME280;9738;51.654;14.238;2022-08-19T08:13:44;99889.69;;;22.10;100.00
19210;BME280;9738;51.654;14.238;2022-08-19T08:16:11;99887.56;;;22.12;100.00
19210;BME280;9738;51.654;14.238;2022-08-19T08:18:36;99885.91;;;22.11;100.00
19210;BME280;9738;51.654;14.238;2022-08-19T08:21:07;99888.38;;;22.13;100.00
19210;BME280;9738;51.654;14.238;2022-08-19T08:23:34;99890.28;;;22.12;100.00
19210;BME280;9738;51.654;14.238;2022-08-19T08:26:00;99892.19;;;22.12;100.00
19210;BME280;9738;51.654;14.238;2022-08-19T08:28:28;99903.66;;;22.14;100.00
19210;BME280;9738;51.654;14.238;2022-08-19T08:30:55;99896.09;;;22.16;100.00
19210;BME280;9738;51.654;14.238;2022-08-19T08:33:24;99893.69;;;22.20;100.00
19210;BME280;9738;51.654;14.238;2022-08-19T08:35:50;99899.72;;;22.22;100.00
19210;BME280;9738;51.654;14.238;2022-08-19T08:38:18;99900.88;;;22.26;100.00
19210;BME280;9738;51.654;14.238;2022-08-19T08:40:48;99905.63;;;22.30;100.00
19210;BME280;9738;51.654;14.238;2022-08-19T08:43:29;99903.47;;;22.32;100.00
19210;BME280;9738;51.654;14.238;2022-08-19T08:46:13;99899.22;;;22.36;100.00
19210;BME280;9738;51.654;14.238;2022-08-19T08:48:50;99896.03;;;22.39;100.00
19210;BME280;9738;51.654;14.238;2022-08-19T08:51:32;99898.34;;;22.48;100.00
19210;BME280;9738;51.654;14.238;2022-08-19T08:53:59;99890.59;;;22.56;100.00
19210;BME280;9738;51.654;14.238;2022-08-19T08:56:26;99892.34;;;22.62;100.00
19210;BME280;9738;51.654;14.238;2022-08-19T08:59:02;99897.41;;;22.71;100.00
19210;BME280;9738;51.654;14.238;2022-08-19T09:01:33;99902.94;;;22.76;100.00
19210;BME280;9738;51.654;14.238;2022-08-19T09:03:58;99903.75;;;22.88;100.00
19210;BME280;9738;51.654;14.238;2022-08-19T09:06:51;99905.03;;;22.97;100.00
19210;BME280;9738;51.654;14.238;2022-08-19T09:09:48;99904.91;;;23.09;100.00
19210;BME280;9738;51.654;14.238;2022-08-19T09:12:32;99886.28;;;23.17;100.00
19210;BME280;9738;51.654;14.238;2022-08-19T09:15:04;99894.56;;;23.23;100.00
19210;BME280;9738;51.654;14.238;2022-08-19T09:17:32;99895.78;;;23.32;100.00
19210;BME280;9738;51.654;14.238;2022-08-19T09:20:18;99886.94;;;23.41;100.00
19210;BME280;9738;51.654;14.238;2022-08-19T09:22:45;99893.38;;;23.52;100.00
19210;BME280;9738;51.654;14.238;2022-08-19T09:25:17;99904.91;;;23.59;100.00
19210;BME280;9738;51.654;14.238;2022-08-19T09:27:43;99895.78;;;23.65;100.00
19210;BME280;9738;51.654;14.238;2022-08-19T09:30:17;99913.28;;;23.69;100.00
19210;BME280;9738;51.654;14.238;2022-08-19T09:32:44;99914.94;;;23.70;100.00
19210;BME280;9738;51.654;14.238;2022-08-19T09:35:11;99919.09;;;23.73;100.00
19210;BME280;9738;51.654;14.238;2022-08-19T09:37:38;99909.56;;;23.76;100.00
19210;BME280;9738;51.654;14.238;2022-08-19T09:40:04;99911.47;;;23.75;100.00
19210;BME280;9738;51.654;14.238;2022-08-19T09:42:30;99903.28;;;23.75;100.00
19210;BME280;9738;51.654;14.238;2022-08-19T09:44:56;99907.91;;;23.75;100.00
19210;BME280;9738;51.654;14.238;2022-08-19T09:47:22;99906.09;;;23.80;100.00
19210;BME280;9738;51.654;14.238;2022-08-19T09:49:48;99905.31;;;23.85;100.00
19210;BME280;9738;51.654;14.238;2022-08-19T09:52:16;99894.75;;;23.88;100.00
19210;BME280;9738;51.654;14.238;2022-08-19T09:54:41;99888.78;;;23.91;100.00
19210;BME280;9738;51.654;14.238;2022-08-19T09:57:08;99892.97;;;23.99;100.00
19210;BME280;9738;51.654;14.238;2022-08-19T09:59:33;99895.28;;;24.07;100.00
19210;BME280;9738;51.654;14.238;2022-08-19T10:02:00;99899.38;;;24.10;100.00
19210;BME280;9738;51.654;14.238;2022-08-19T10:04:26;99889.88;;;24.12;100.00
19210;BME280;9738;51.654;14.238;2022-08-19T10:07:12;99889.00;;;24.07;100.00
19210;BME280;9738;51.654;14.238;2022-08-19T10:09:38;99887.66;;;24.09;100.00
19210;BME280;9738;51.654;14.238;2022-08-19T10:12:07;99889.63;;;24.14;100.00
19210;BME280;9738;51.654;14.238;2022-08-19T10:14:34;99886.88;;;24.14;100.00
19210;BME280;9738;51.654;14.238;2022-08-19T10:17:01;99886.31;;;24.12;100.00
19210;BME280;9738;51.654;14.238;2022-08-19T10:19:28;99879.19;;;24.11;100.00
19210;BME280;9738;51.654;14.238;2022-08-19T10:21:57;99889.56;;;24.09;100.00
19210;BME280;9738;51.654;14.238;2022-08-19T10:24:24;99885.66;;;24.05;100.00
19210;BME280;9738;51.654;14.238;2022-08-19T10:26:51;99889.25;;;24.05;100.00
19210;BME280;9738;51.654;14.238;2022-08-19T10:29:17;99876.16;;;24.07;100.00
19210;BME280;9738;51.654;14.238;2022-08-19T10:31:43;99881.63;;;24.07;100.00
19210;BME280;9738;51.654;14.238;2022-08-19T10:34:09;99892.03;;;24.10;100.00
19210;BME280;9738;51.654;14.238;2022-08-19T10:36:36;99891.53;;;24.13;100.00
19210;BME280;9738;51.654;14.238;2022-08-19T10:39:06;99894.25;;;24.13;100.00
19210;BME280;9738;51.654;14.238;2022-08-19T10:41:35;99897.25;;;24.12;100.00
19210;BME280;9738;51.654;14.238;2022-08-19T10:44:07;99911.72;;;24.12;100.00
19210;BME280;9738;51.654;14.238;2022-08-19T10:46:37;99919.91;;;24.12;100.00
19210;BME280;9738;51.654;14.238;2022-08-19T10:49:04;99923.94;;;24.10;100.00
19210;BME280;9738;51.654;14.238;2022-08-19T10:51:31;99926.44;;;24.11;100.00
19210;BME280;9738;51.654;14.238;2022-08-19T10:54:17;99936.50;;;24.11;100.00
19210;BME280;9738;51.654;14.238;2022-08-19T10:56:43;99937.28;;;24.06;100.00
19210;BME280;9738;51.654;14.238;2022-08-19T11:01:46;99932.91;;;24.05;100.00
19210;BME280;9738;51.654;14.238;2022-08-19T11:04:13;99940.50;;;24.03;100.00
19210;BME280;9738;51.654;14.238;2022-08-19T11:06:41;99941.31;;;24.04;100.00
19210;BME280;9738;51.654;14.238;2022-08-19T11:09:09;99943.56;;;24.07;100.00
19210;BME280;9738;51.654;14.238;2022-08-19T11:11:36;99951.22;;;24.10;100.00
19210;BME280;9738;51.654;14.238;2022-08-19T11:14:08;99956.19;;;24.13;100.00
19210;BME280;9738;51.654;14.238;2022-08-19T11:16:35;99951.56;;;24.13;100.00
19210;BME280;9738;51.654;14.238;2022-08-19T11:19:06;99959.00;;;24.18;100.00
19210;BME280;9738;51.654;14.238;2022-08-19T11:21:36;99953.91;;;24.26;100.00
19210;BME280;9738;51.654;14.238;2022-08-19T11:24:15;99965.38;;;24.28;100.00
19210;BME280;9738;51.654;14.238;2022-08-19T11:26:42;99974.66;;;24.27;100.00
19210;BME280;9738;51.654;14.238;2022-08-19T11:29:10;99979.56;;;24.25;100.00
19210;BME280;9738;51.654;14.238;2022-08-19T11:31:40;99978.97;;;24.23;100.00
19210;BME280;9738;51.654;14.238;2022-08-19T11:34:09;99987.66;;;24.20;100.00
19210;BME280;9738;51.654;14.238;2022-08-19T11:36:41;99981.66;;;24.18;100.00
19210;BME280;9738;51.654;14.238;2022-08-19T11:39:09;99986.03;;;24.19;100.00
19210;BME280;9738;51.654;14.238;2022-08-19T11:41:35;99979.47;;;24.20;100.00
19210;BME280;9738;51.654;14.238;2022-08-19T11:44:02;99987.66;;;24.20;100.00
19210;BME280;9738;51.654;14.238;2022-08-19T11:46:29;99987.94;;;24.19;100.00
19210;BME280;9738;51.654;14.238;2022-08-19T11:48:55;99980.47;;;24.14;100.00
19210;BME280;9738;51.654;14.238;2022-08-19T11:51:23;99991.91;;;24.11;100.00
19210;BME280;9738;51.654;14.238;2022-08-19T11:53:52;99993.56;;;24.12;100.00
19210;BME280;9738;51.654;14.238;2022-08-19T11:56:18;100000.66;;;24.13;100.00
19210;BME280;9738;51.654;14.238;2022-08-19T11:58:44;99999.66;;;24.19;100.00
19210;BME280;9738;51.654;14.238;2022-08-19T12:01:12;100000.75;;;24.18;100.00
19210;BME280;9738;51.654;14.238;2022-08-19T12:03:39;100005.59;;;24.16;100.00
19210;BME280;9738;51.654;14.238;2022-08-19T12:06:06;100005.03;;;24.14;100.00
19210;BME280;9738;51.654;14.238;2022-08-19T12:08:33;100003.31;;;24.08;100.00
19210;BME280;9738;51.654;14.238;2022-08-19T12:10:58;100009.28;;;24.05;100.00
19210;BME280;9738;51.654;14.238;2022-08-19T12:13:28;100011.41;;;24.03;100.00
19210;BME280;9738;51.654;14.238;2022-08-19T12:15:54;100014.41;;;24.02;100.00
19210;BME280;9738;51.654;14.238;2022-08-19T12:18:20;100008.94;;;24.02;100.00
19210;BME280;9738;51.654;14.238;2022-08-19T12:20:46;100002.66;;;24.01;100.00
19210;BME280;9738;51.654;14.238;2022-08-19T12:23:13;100011.94;;;24.00;100.00
19210;BME280;9738;51.654;14.238;2022-08-19T12:25:44;100009.03;;;24.07;100.00
19210;BME280;9738;51.654;14.238;2022-08-19T12:28:16;99999.84;;;24.13;100.00
19210;BME280;9738;51.654;14.238;2022-08-19T12:30:42;100002.88;;;24.16;100.00
19210;BME280;9738;51.654;14.238;2022-08-19T12:33:08;100008.94;;;24.18;100.00
19210;BME280;9738;51.654;14.238;2022-08-19T12:35:34;100012.06;;;24.10;100.00
19210;BME280;9738;51.654;14.238;2022-08-19T12:38:00;100016.06;;;24.03;100.00
19210;BME280;9738;51.654;14.238;2022-08-19T12:40:29;100014.91;;;23.98;100.00
19210;BME280;9738;51.654;14.238;2022-08-19T12:42:55;100017.06;;;23.96;100.00
19210;BME280;9738;51.654;14.238;2022-08-19T12:45:21;100030.38;;;23.93;100.00
19210;BME280;9738;51.654;14.238;2022-08-19T12:47:48;100035.75;;;23.88;100.00
19210;BME280;9738;51.654;14.238;2022-08-19T12:50:14;100025.31;;;23.85;100.00
19210;BME280;9738;51.654;14.238;2022-08-19T12:52:40;100030.94;;;23.78;100.00
19210;BME280;9738;51.654;14.238;2022-08-19T12:55:08;100031.53;;;23.80;100.00
19210;BME280;9738;51.654;14.238;2022-08-19T12:57:35;100025.50;;;23.78;100.00
19210;BME280;9738;51.654;14.238;2022-08-19T13:00:05;100041.03;;;23.78;100.00